createdAt,value
2018-03-27T00:02:10.747Z,81.52
2018-03-27T00:04:39.418Z,81.27
2018-03-27T00:07:08.154Z,81.32
2018-03-27T00:09:36.967Z,81.30
2018-03-27T00:12:05.784Z,81.00
2018-03-27T00:14:34.607Z,80.50
2018-03-27T00:17:03.432Z,80.74
2018-03-27T00:19:32.251Z,81.16
2018-03-27T00:22:01.574Z,80.79
2018-03-27T00:24:45.251Z,81.09
2018-03-27T00:27:13.277Z,80.27
2018-03-27T00:29:53.431Z,80.01
2018-03-27T00:32:40.329Z,79.54
2018-03-27T00:35:26.607Z,79.98
2018-03-27T00:38:12.892Z,79.79
2018-03-27T00:40:47.024Z,80.30
2018-03-27T00:43:15.545Z,80.92
2018-03-27T00:45:43.952Z,81.06
2018-03-27T00:48:12.363Z,80.89
2018-03-27T00:50:40.981Z,80.29
2018-03-27T00:53:09.936Z,80.61
2018-03-27T00:55:38.582Z,80.64
2018-03-27T00:58:07.299Z,80.61
2018-03-27T01:00:36.098Z,80.24
2018-03-27T01:03:04.770Z,80.23
2018-03-27T01:05:33.454Z,80.38
2018-03-27T01:08:02.261Z,80.59
2018-03-27T01:10:31.084Z,80.74
2018-03-27T01:12:59.914Z,80.87
2018-03-27T01:15:28.728Z,81.33
2018-03-27T01:17:57.452Z,81.76
2018-03-27T01:20:26.282Z,81.11
2018-03-27T01:22:55.096Z,81.26
2018-03-27T01:25:23.831Z,81.50
2018-03-27T01:27:52.540Z,81.49
2018-03-27T01:30:21.361Z,80.73
2018-03-27T01:32:50.098Z,81.26
2018-03-27T01:35:18.906Z,81.21
2018-03-27T01:37:47.627Z,81.27
2018-03-27T01:40:16.452Z,81.47
2018-03-27T01:42:45.170Z,81.84
2018-03-27T01:45:13.870Z,81.49
2018-03-27T01:47:42.716Z,81.68
2018-03-27T01:50:11.543Z,81.63
2018-03-27T01:52:40.183Z,81.80
2018-03-27T01:55:08.892Z,81.35
2018-03-27T01:57:37.615Z,81.74
2018-03-27T02:00:06.418Z,81.88
2018-03-27T02:02:35.153Z,81.75
2018-03-27T02:05:03.888Z,80.41
2018-03-27T02:07:33.295Z,79.67
2018-03-27T02:10:02.188Z,79.04
2018-03-27T02:12:36.362Z,78.99
2018-03-27T02:15:10.699Z,79.08
2018-03-27T02:17:44.848Z,79.09
2018-03-27T02:20:19.053Z,79.34
2018-03-27T02:23:03.759Z,79.77
2018-03-27T02:25:32.584Z,79.07
2018-03-27T02:28:01.404Z,79.17
2018-03-27T02:30:30.226Z,78.37
2018-03-27T02:32:58.911Z,77.46
2018-03-27T02:35:27.773Z,77.48
2018-03-27T02:37:56.493Z,77.22
2018-03-27T02:40:25.226Z,76.67
2018-03-27T02:42:54.040Z,76.43
2018-03-27T02:45:22.698Z,75.81
2018-03-27T02:47:51.384Z,75.39
2018-03-27T02:50:20.005Z,75.86
2018-03-27T02:52:48.721Z,75.83
2018-03-27T02:55:17.379Z,75.20
2018-03-27T02:57:46.168Z,75.67
2018-03-27T03:00:14.894Z,75.56
2018-03-27T03:02:43.561Z,75.30
2018-03-27T03:05:12.230Z,75.55
2018-03-27T03:07:40.861Z,74.90
2018-03-27T03:10:09.520Z,75.05
2018-03-27T03:12:38.273Z,74.59
2018-03-27T03:15:06.953Z,73.73
2018-03-27T03:17:35.590Z,73.73
2018-03-27T03:20:04.327Z,73.53
2018-03-27T03:22:32.990Z,73.98
2018-03-27T03:25:01.656Z,74.58
2018-03-27T03:27:30.429Z,74.45
2018-03-27T03:29:59.154Z,74.80
2018-03-27T03:32:27.876Z,75.28
2018-03-27T03:34:56.602Z,74.92
2018-03-27T03:37:25.231Z,75.96
2018-03-27T03:39:54.264Z,76.05
2018-03-27T03:42:22.934Z,76.73
2018-03-27T03:44:51.569Z,76.62
2018-03-27T03:47:20.184Z,76.75
2018-03-27T03:49:48.786Z,76.80
2018-03-27T03:52:17.390Z,77.21
2018-03-27T03:54:46.040Z,77.43
2018-03-27T03:57:14.643Z,76.91
2018-03-27T03:59:43.362Z,77.15
2018-03-27T04:02:11.971Z,76.67
2018-03-27T04:04:40.573Z,76.74
2018-03-27T04:07:09.922Z,76.64
2018-03-27T04:09:38.567Z,76.74
2018-03-27T04:12:07.241Z,76.63
2018-03-27T04:14:35.859Z,76.63
2018-03-27T04:17:04.496Z,76.35
2018-03-27T04:19:33.095Z,76.31
2018-03-27T04:22:01.724Z,76.34
2018-03-27T04:24:30.384Z,76.08
2018-03-27T04:26:58.971Z,76.28
2018-03-27T04:29:28.376Z,76.67
2018-03-27T04:31:56.996Z,76.37
2018-03-27T04:34:25.720Z,76.52
2018-03-27T04:36:54.448Z,76.69
2018-03-27T04:39:23.106Z,76.25
2018-03-27T04:41:51.791Z,76.32
2018-03-27T04:44:20.511Z,75.88
2018-03-27T04:46:49.300Z,76.60
2018-03-27T04:49:17.908Z,76.09
2018-03-27T04:51:46.772Z,76.33
2018-03-27T04:54:15.496Z,75.82
2018-03-27T04:56:44.104Z,76.16
2018-03-27T04:59:12.759Z,76.01
2018-03-27T05:01:41.525Z,76.14
2018-03-27T05:04:10.182Z,76.24
2018-03-27T05:06:38.804Z,75.48
2018-03-27T05:09:08.426Z,76.19
2018-03-27T05:11:37.065Z,75.54
2018-03-27T05:14:05.772Z,75.85
2018-03-27T05:16:34.743Z,75.36
2018-03-27T05:19:03.360Z,75.31
2018-03-27T05:21:32.038Z,74.30
2018-03-27T05:24:00.695Z,74.45
2018-03-27T05:26:29.414Z,74.51
2018-03-27T05:28:58.010Z,74.79
2018-03-27T05:31:26.590Z,74.60
2018-03-27T05:33:55.343Z,74.34
2018-03-27T05:36:24.169Z,74.57
2018-03-27T05:38:52.767Z,74.91
2018-03-27T05:41:21.522Z,74.56
2018-03-27T05:43:50.166Z,74.98
2018-03-27T05:46:18.894Z,74.07
2018-03-27T05:48:47.542Z,74.74
2018-03-27T05:51:16.197Z,74.92
2018-03-27T05:53:44.997Z,74.88
2018-03-27T05:56:13.614Z,76.34
2018-03-27T05:58:42.259Z,75.86
2018-03-27T06:01:11.000Z,75.93
2018-03-27T06:03:39.708Z,75.92
2018-03-27T06:06:08.451Z,74.19
2018-03-27T06:08:37.088Z,74.21
2018-03-27T06:11:06.075Z,74.22
2018-03-27T06:13:34.722Z,74.15
2018-03-27T06:16:03.366Z,74.29
2018-03-27T06:18:32.062Z,72.15
2018-03-27T06:21:00.698Z,72.05
2018-03-27T06:23:29.381Z,70.74
2018-03-27T06:25:58.206Z,71.38
2018-03-27T06:28:27.106Z,69.54
2018-03-27T06:30:55.730Z,69.94
2018-03-27T06:33:24.317Z,69.97
2018-03-27T06:35:53.196Z,71.15
2018-03-27T06:38:22.125Z,70.37
2018-03-27T06:40:50.937Z,69.82
2018-03-27T06:43:19.899Z,69.58
2018-03-27T06:45:48.585Z,69.40
2018-03-27T06:48:17.305Z,69.81
2018-03-27T06:50:46.126Z,69.00
2018-03-27T06:53:14.753Z,69.27
2018-03-27T06:55:43.387Z,68.15
2018-03-27T06:58:11.971Z,66.93
2018-03-27T07:00:40.617Z,66.22
2018-03-27T07:03:09.240Z,65.27
2018-03-27T07:05:38.004Z,64.90
2018-03-27T07:08:06.881Z,64.47
2018-03-27T07:10:35.645Z,65.21
2018-03-27T07:13:04.254Z,64.33
2018-03-27T07:15:32.888Z,63.66
2018-03-27T07:18:01.507Z,63.21
2018-03-27T07:20:30.265Z,62.90
2018-03-27T07:22:59.012Z,62.49
2018-03-27T07:25:27.661Z,62.78
2018-03-27T07:27:56.527Z,62.21
2018-03-27T07:30:25.128Z,62.17
2018-03-27T07:32:53.768Z,61.74
2018-03-27T07:35:22.384Z,62.13
2018-03-27T07:37:51.039Z,61.19
2018-03-27T07:40:19.680Z,60.95
2018-03-27T07:42:48.312Z,60.12
2018-03-27T07:45:16.919Z,60.73
2018-03-27T07:47:45.563Z,60.27
2018-03-27T07:50:14.173Z,59.51
2018-03-27T07:52:42.794Z,59.12
2018-03-27T07:55:11.430Z,59.03
2018-03-27T07:57:40.412Z,57.11
2018-03-27T08:00:09.103Z,58.44
2018-03-27T08:02:37.702Z,57.99
2018-03-27T08:05:06.440Z,58.15
2018-03-27T08:07:35.025Z,56.57
2018-03-27T08:10:03.729Z,57.02
2018-03-27T08:12:32.443Z,56.45
2018-03-27T08:15:01.163Z,56.15
2018-03-27T08:17:29.891Z,56.26
2018-03-27T08:19:58.516Z,56.01
2018-03-27T08:22:27.331Z,57.33
2018-03-27T08:24:56.053Z,56.09
2018-03-27T08:27:25.242Z,56.10
2018-03-27T08:29:53.851Z,54.21
2018-03-27T08:32:22.518Z,52.80
2018-03-27T08:34:51.144Z,52.95
2018-03-27T08:37:19.752Z,53.00
2018-03-27T08:39:48.395Z,52.81
2018-03-27T08:42:17.135Z,52.42
2018-03-27T08:44:45.832Z,52.00
2018-03-27T08:47:14.501Z,50.08
2018-03-27T08:49:43.271Z,49.20
2018-03-27T08:52:11.879Z,49.76
2018-03-27T08:54:40.854Z,51.42
2018-03-27T08:57:09.597Z,52.36
2018-03-27T08:59:38.205Z,52.63
2018-03-27T09:02:06.858Z,54.83
2018-03-27T09:04:35.512Z,54.52
2018-03-27T09:07:04.210Z,54.26
2018-03-27T09:09:32.863Z,53.68
2018-03-27T09:12:01.449Z,53.90
2018-03-27T09:14:30.057Z,53.25
2018-03-27T09:16:58.920Z,53.06
2018-03-27T09:19:27.562Z,52.03
2018-03-27T09:21:56.210Z,53.09
2018-03-27T09:24:24.978Z,52.70
2018-03-27T09:26:53.646Z,52.24
2018-03-27T09:29:22.281Z,52.03
2018-03-27T09:31:50.916Z,50.62
2018-03-27T09:34:19.519Z,49.79
2018-03-27T09:36:48.298Z,49.07
2018-03-27T09:39:16.952Z,49.49
2018-03-27T09:41:45.589Z,50.32
2018-03-27T09:44:14.452Z,52.44
2018-03-27T09:46:43.054Z,53.26
2018-03-27T09:49:11.671Z,54.25
2018-03-27T09:51:40.324Z,54.66
2018-03-27T09:54:09.038Z,55.92
2018-03-27T09:56:37.701Z,55.93
2018-03-27T09:59:06.387Z,55.79
2018-03-27T10:01:39.819Z,53.72
2018-03-27T10:04:08.448Z,53.64
2018-03-27T10:06:37.140Z,53.00
2018-03-27T10:09:06.055Z,53.14
2018-03-27T10:11:34.689Z,54.86
2018-03-27T10:14:03.325Z,54.18
2018-03-27T10:16:31.964Z,53.80
2018-03-27T10:19:00.673Z,52.17
2018-03-27T10:21:29.403Z,51.00
2018-03-27T10:23:58.036Z,50.15
2018-03-27T10:26:26.648Z,50.95
2018-03-27T10:28:55.330Z,50.35
2018-03-27T10:31:23.923Z,52.98
2018-03-27T10:33:53.203Z,53.03
2018-03-27T10:36:21.823Z,52.04
2018-03-27T10:38:50.498Z,51.25
2018-03-27T10:41:19.271Z,51.25
2018-03-27T10:43:47.882Z,48.86
2018-03-27T10:46:16.715Z,46.01
2018-03-27T10:48:45.437Z,43.81
2018-03-27T10:51:14.082Z,44.10
2018-03-27T10:53:42.702Z,44.25
2018-03-27T10:56:11.348Z,43.31
2018-03-27T10:58:39.980Z,41.21
2018-03-27T11:01:08.642Z,42.63
2018-03-27T11:03:37.377Z,41.68
2018-03-27T11:06:06.087Z,44.75
2018-03-27T11:08:34.777Z,45.85
2018-03-27T11:11:03.549Z,45.60
2018-03-27T11:13:32.888Z,47.20
2018-03-27T11:16:01.510Z,48.50
2018-03-27T11:18:30.185Z,48.87
2018-03-27T11:20:58.817Z,50.29
2018-03-27T11:23:27.441Z,51.33
2018-03-27T11:25:56.122Z,52.70
2018-03-27T11:28:24.786Z,52.01
2018-03-27T11:30:53.456Z,52.05
2018-03-27T11:33:22.129Z,51.91
2018-03-27T11:35:50.862Z,51.28
2018-03-27T11:38:19.643Z,51.40
2018-03-27T11:40:48.296Z,51.59
2018-03-27T11:43:17.429Z,51.90
2018-03-27T11:45:46.062Z,51.42
2018-03-27T11:48:14.752Z,51.78
2018-03-27T11:50:43.388Z,50.60
2018-03-27T11:53:12.820Z,50.86
2018-03-27T11:55:41.526Z,50.39
2018-03-27T11:58:10.229Z,51.85
2018-03-27T12:00:38.875Z,53.27
2018-03-27T12:03:07.629Z,52.49
2018-03-27T12:05:36.299Z,50.82
2018-03-27T12:08:05.032Z,52.35
2018-03-27T12:10:33.717Z,50.53
2018-03-27T12:13:02.431Z,49.54
2018-03-27T12:15:31.065Z,50.84
2018-03-27T12:17:59.722Z,51.75
2018-03-27T12:20:28.320Z,50.90
2018-03-27T12:22:56.969Z,50.80
2018-03-27T12:25:25.595Z,51.52
2018-03-27T12:27:54.250Z,51.11
2018-03-27T12:30:22.871Z,50.52
2018-03-27T12:32:51.559Z,49.40
2018-03-27T12:35:20.163Z,49.37
2018-03-27T12:37:48.741Z,48.56
2018-03-27T12:40:17.282Z,49.89
2018-03-27T12:42:45.864Z,50.44
2018-03-27T12:45:14.465Z,51.07
2018-03-27T12:47:43.097Z,49.47
2018-03-27T12:50:11.700Z,49.56
2018-03-27T12:52:40.726Z,48.42
2018-03-27T12:55:09.293Z,48.08
2018-03-27T12:57:37.908Z,47.03
2018-03-27T13:00:06.540Z,48.36
2018-03-27T13:02:35.231Z,50.74
2018-03-27T13:05:03.782Z,50.13
2018-03-27T13:07:32.559Z,49.19
2018-03-27T13:10:01.378Z,49.46
2018-03-27T13:12:29.978Z,49.77
2018-03-27T13:14:58.574Z,49.14
2018-03-27T13:17:27.174Z,48.73
2018-03-27T13:19:55.799Z,49.52
2018-03-27T13:22:25.160Z,50.47
2018-03-27T13:24:53.717Z,50.77
2018-03-27T13:27:22.320Z,50.37
2018-03-27T13:29:50.904Z,51.04
2018-03-27T13:32:19.758Z,50.32
2018-03-27T13:34:48.298Z,49.66
2018-03-27T13:37:16.933Z,49.11
2018-03-27T13:39:45.591Z,50.28
2018-03-27T13:42:14.185Z,49.68
2018-03-27T13:44:42.791Z,49.28
2018-03-27T13:47:11.385Z,49.71
2018-03-27T13:49:39.974Z,50.23
2018-03-27T13:52:08.675Z,50.49
2018-03-27T13:54:37.980Z,51.50
2018-03-27T13:57:06.539Z,51.92
2018-03-27T13:59:35.202Z,51.98
2018-03-27T14:02:03.788Z,52.54
2018-03-27T14:04:32.403Z,51.45
2018-03-27T14:07:01.003Z,51.17
2018-03-27T14:09:29.678Z,51.66
2018-03-27T14:11:58.277Z,51.92
2018-03-27T14:14:26.824Z,52.05
2018-03-27T14:16:55.474Z,52.09
2018-03-27T14:19:24.268Z,52.56
2018-03-27T14:21:52.884Z,51.91
2018-03-27T14:24:22.232Z,51.91
2018-03-27T14:26:50.866Z,50.96
2018-03-27T14:29:19.445Z,51.52
2018-03-27T14:31:48.004Z,50.36
2018-03-27T14:34:16.626Z,49.48
2018-03-27T14:36:52.284Z,50.17
2018-03-27T14:39:20.897Z,49.53
2018-03-27T14:41:50.284Z,49.38
2018-03-27T14:44:19.056Z,50.00
2018-03-27T14:46:47.910Z,50.35
2018-03-27T14:49:16.587Z,49.00
2018-03-27T14:51:45.407Z,49.90
2018-03-27T14:54:14.068Z,51.17
2018-03-27T14:56:42.743Z,51.74
2018-03-27T14:59:11.372Z,53.20
2018-03-27T15:01:40.089Z,51.90
2018-03-27T15:04:08.787Z,52.67
2018-03-27T15:06:37.431Z,52.78
2018-03-27T15:09:06.255Z,53.25
2018-03-27T15:11:34.984Z,52.64
2018-03-27T15:14:03.556Z,53.43
2018-03-27T15:16:32.820Z,51.34
2018-03-27T15:19:01.455Z,51.45
2018-03-27T15:21:30.164Z,53.04
2018-03-27T15:23:58.882Z,52.62
2018-03-27T15:26:27.607Z,51.46
2018-03-27T15:28:56.332Z,51.51
2018-03-27T15:31:25.050Z,51.95
2018-03-27T15:33:53.671Z,52.12
2018-03-27T15:36:22.314Z,52.07
2018-03-27T15:38:50.924Z,52.78
2018-03-27T15:41:19.736Z,53.50
2018-03-27T15:43:48.462Z,53.33
2018-03-27T15:46:17.181Z,53.06
2018-03-27T15:48:45.812Z,53.43
2018-03-27T15:51:14.526Z,54.03
2018-03-27T15:53:43.787Z,54.41
2018-03-27T15:56:12.571Z,54.44
2018-03-27T15:58:41.292Z,54.55
2018-03-27T16:01:10.583Z,55.17
2018-03-27T16:03:39.336Z,55.61
2018-03-27T16:06:07.952Z,55.60
2018-03-27T16:08:36.682Z,55.52
2018-03-27T16:11:05.403Z,55.81
2018-03-27T16:13:34.031Z,55.71
2018-03-27T16:16:02.750Z,55.85
2018-03-27T16:18:31.436Z,56.27
2018-03-27T16:21:00.023Z,56.46
2018-03-27T16:23:28.705Z,56.78
2018-03-27T16:25:57.426Z,57.36
2018-03-27T16:28:26.012Z,57.84
2018-03-27T16:30:54.769Z,58.20
2018-03-27T16:33:24.221Z,57.83
2018-03-27T16:35:53.117Z,57.98
2018-03-27T16:38:21.740Z,58.39
2018-03-27T16:40:50.459Z,58.92
2018-03-27T16:43:19.080Z,59.52
2018-03-27T16:45:48.794Z,59.90
2018-03-27T16:48:17.348Z,60.13
2018-03-27T16:50:46.149Z,60.07
2018-03-27T16:53:14.875Z,60.15
2018-03-27T16:55:43.595Z,60.14
2018-03-27T16:58:12.191Z,60.47
2018-03-27T17:00:40.918Z,61.14
2018-03-27T17:03:09.662Z,60.35
2018-03-27T17:05:38.476Z,59.96
2018-03-27T17:08:07.085Z,60.11
2018-03-27T17:10:35.825Z,60.48
2018-03-27T17:13:04.649Z,60.07
2018-03-27T17:15:33.237Z,59.76
2018-03-27T17:18:01.960Z,59.51
2018-03-27T17:20:30.813Z,59.42
2018-03-27T17:22:59.538Z,59.11
2018-03-27T17:25:28.258Z,59.31
2018-03-27T17:27:56.884Z,59.45
2018-03-27T17:30:25.607Z,59.64
2018-03-27T17:32:54.422Z,59.83
2018-03-27T17:35:23.125Z,60.19
2018-03-27T17:37:51.869Z,60.84
2018-03-27T17:40:20.691Z,60.74
2018-03-27T17:42:49.445Z,61.10
2018-03-27T17:45:18.091Z,61.12
2018-03-27T17:47:46.853Z,61.19
2018-03-27T17:50:16.684Z,61.43
2018-03-27T17:52:45.390Z,60.79
2018-03-27T17:55:14.037Z,60.58
2018-03-27T17:57:43.362Z,61.23
2018-03-27T18:00:12.170Z,60.82
2018-03-27T18:02:40.859Z,61.50
2018-03-27T18:05:09.522Z,60.84
2018-03-27T18:07:38.135Z,60.03
2018-03-27T18:10:06.777Z,60.47
2018-03-27T18:12:35.528Z,60.82
2018-03-27T18:15:04.304Z,60.74
2018-03-27T18:17:32.861Z,61.24
2018-03-27T18:20:01.646Z,61.56
2018-03-27T18:22:30.247Z,61.23
2018-03-27T18:24:58.990Z,61.23
2018-03-27T18:27:27.712Z,60.94
2018-03-27T18:29:56.330Z,61.22
2018-03-27T18:32:25.054Z,61.85
2018-03-27T18:34:54.323Z,63.03
2018-03-27T18:37:22.928Z,61.76
2018-03-27T18:39:51.541Z,61.37
2018-03-27T18:42:20.273Z,61.17
2018-03-27T18:44:48.963Z,61.34
2018-03-27T18:47:17.604Z,60.78
2018-03-27T18:49:46.325Z,61.07
2018-03-27T18:52:14.992Z,61.34
2018-03-27T18:54:43.751Z,61.03
2018-03-27T18:57:12.350Z,60.62
2018-03-27T18:59:41.096Z,60.96
2018-03-27T19:02:09.814Z,60.57
2018-03-27T19:04:38.640Z,61.32
2018-03-27T19:07:07.259Z,61.23
2018-03-27T19:09:37.687Z,61.49
2018-03-27T19:12:06.413Z,61.55
2018-03-27T19:14:35.068Z,61.61
2018-03-27T19:17:03.754Z,62.55
2018-03-27T19:19:32.476Z,63.50
2018-03-27T19:22:01.201Z,63.18
2018-03-27T19:24:29.830Z,63.12
2018-03-27T19:26:58.542Z,63.33
2018-03-27T19:29:27.263Z,63.78
2018-03-27T19:31:55.885Z,64.31
2018-03-27T19:34:24.511Z,64.05
2018-03-27T19:36:53.128Z,64.68
2018-03-27T19:39:21.936Z,64.78
2018-03-27T19:41:50.581Z,64.28
2018-03-27T19:44:19.315Z,63.57
2018-03-27T19:46:48.024Z,63.54
2018-03-27T19:49:16.643Z,62.45
2018-03-27T19:51:45.530Z,63.25
2018-03-27T19:54:14.260Z,64.14
2018-03-27T19:56:42.998Z,63.78
2018-03-27T19:59:11.727Z,63.73
2018-03-27T20:01:40.450Z,63.81
2018-03-27T20:04:09.168Z,64.25
2018-03-27T20:06:37.890Z,65.08
2018-03-27T20:09:06.517Z,65.28
2018-03-27T20:11:35.140Z,65.59
2018-03-27T20:14:03.871Z,65.22
2018-03-27T20:16:32.492Z,66.01
2018-03-27T20:19:01.273Z,66.14
2018-03-27T20:21:30.025Z,66.27
2018-03-27T20:23:59.250Z,66.36
2018-03-27T20:26:27.946Z,66.43
2018-03-27T20:28:56.590Z,66.41
2018-03-27T20:31:25.307Z,66.40
2018-03-27T20:33:54.035Z,66.11
2018-03-27T20:36:22.741Z,68.60
2018-03-27T20:38:51.455Z,65.91
2018-03-27T20:41:20.097Z,65.95
2018-03-27T20:43:48.662Z,67.04
2018-03-27T20:46:17.442Z,67.36
2018-03-27T20:48:45.994Z,66.76
2018-03-27T20:51:14.785Z,65.80
2018-03-27T20:53:43.506Z,65.43
2018-03-27T20:56:12.156Z,65.38
2018-03-27T20:58:40.763Z,64.88
2018-03-27T21:01:09.511Z,64.25
2018-03-27T21:03:38.082Z,63.13
2018-03-27T21:06:06.815Z,63.49
2018-03-27T21:08:36.238Z,64.19
2018-03-27T21:11:04.960Z,63.97
2018-03-27T21:13:33.646Z,63.77
2018-03-27T21:16:02.303Z,64.45
2018-03-27T21:18:31.026Z,64.57
2018-03-27T21:20:59.749Z,65.25
2018-03-27T21:23:28.470Z,64.84
2018-03-27T21:25:57.107Z,65.46
2018-03-27T21:28:25.789Z,66.13
2018-03-27T21:30:54.400Z,67.33
2018-03-27T21:33:22.972Z,65.98
2018-03-27T21:35:51.736Z,66.65
2018-03-27T21:38:20.378Z,66.07
2018-03-27T21:40:49.024Z,65.46
2018-03-27T21:43:17.742Z,65.74
2018-03-27T21:45:47.168Z,66.24
2018-03-27T21:48:15.891Z,66.52
2018-03-27T21:50:44.711Z,66.77
2018-03-27T21:53:13.467Z,65.80
2018-03-27T21:55:42.073Z,66.08
2018-03-27T21:58:10.822Z,66.02
2018-03-27T22:00:39.500Z,66.05
2018-03-27T22:03:08.244Z,66.08
2018-03-27T22:05:36.837Z,65.69
2018-03-27T22:08:05.599Z,66.03
2018-03-27T22:10:34.270Z,65.50
2018-03-27T22:13:03.114Z,66.15
2018-03-27T22:15:31.746Z,65.69
2018-03-27T22:18:00.554Z,65.87
2018-03-27T22:20:29.191Z,66.08
2018-03-27T22:22:58.085Z,66.20
2018-03-27T22:25:26.716Z,66.48
2018-03-27T22:27:55.472Z,66.93
2018-03-27T22:30:24.866Z,65.93
2018-03-27T22:32:53.587Z,65.52
2018-03-27T22:35:22.309Z,65.83
2018-03-27T22:37:51.004Z,65.58
2018-03-27T22:40:19.660Z,65.65
2018-03-27T22:42:48.289Z,65.58
2018-03-27T22:45:17.601Z,64.96
2018-03-27T22:47:48.093Z,64.89
2018-03-27T22:50:16.849Z,65.21
2018-03-27T22:52:47.981Z,66.00
2018-03-27T22:55:16.616Z,65.11
2018-03-27T22:57:45.388Z,64.71
2018-03-27T23:00:15.448Z,66.11
2018-03-27T23:02:43.843Z,65.31
2018-03-27T23:05:13.696Z,64.13
2018-03-27T23:07:42.320Z,61.93
2018-03-27T23:10:11.050Z,61.05
2018-03-27T23:12:39.761Z,61.75
2018-03-27T23:15:08.493Z,62.72
2018-03-27T23:17:37.203Z,62.59
2018-03-27T23:20:05.984Z,61.06
2018-03-27T23:22:34.748Z,62.00
2018-03-27T23:25:03.420Z,61.17
2018-03-27T23:27:32.104Z,61.13
2018-03-27T23:30:01.120Z,61.39
2018-03-27T23:32:29.941Z,60.84
2018-03-27T23:34:58.679Z,60.29
2018-03-27T23:37:27.383Z,60.25
2018-03-27T23:39:56.124Z,59.57
2018-03-27T23:42:24.925Z,60.49
2018-03-27T23:44:53.647Z,60.89
2018-03-27T23:47:22.368Z,61.30
2018-03-27T23:49:51.002Z,61.40
2018-03-27T23:52:19.613Z,61.65
2018-03-27T23:54:48.258Z,62.05
2018-03-27T23:57:16.860Z,61.35
2018-03-27T23:59:45.578Z,60.70
